createdAt,value
2022-11-20T00:01:14.457Z,1.52
2022-11-20T00:03:43.001Z,1.51
2022-11-20T00:06:14.006Z,1.47
2022-11-20T00:08:41.914Z,1.38
2022-11-20T00:11:15.803Z,1.41
2022-11-20T00:13:45.105Z,1.37
2022-11-20T00:16:16.230Z,1.32
2022-11-20T00:18:48.363Z,1.31
2022-11-20T00:21:19.982Z,1.27
2022-11-20T00:23:51.167Z,1.28
2022-11-20T00:26:21.300Z,1.31
2022-11-20T00:28:52.115Z,1.29
2022-11-20T00:31:20.387Z,1.26
2022-11-20T00:33:51.290Z,1.25
2022-11-20T00:36:23.006Z,1.27
2022-11-20T00:38:53.477Z,1.23
2022-11-20T00:41:21.679Z,1.16
2022-11-20T00:43:49.521Z,1.16
2022-11-20T00:46:19.342Z,1.16
2022-11-20T00:48:47.299Z,1.20
2022-11-20T00:51:18.594Z,1.13
2022-11-20T00:53:49.058Z,1.11
2022-11-20T00:56:18.977Z,1.04
2022-11-20T00:58:48.859Z,1.09
2022-11-20T01:01:19.442Z,1.08
2022-11-20T01:03:48.609Z,1.06
2022-11-20T01:06:18.915Z,0.99
2022-11-20T01:08:48.938Z,1.00
2022-11-20T01:11:19.826Z,0.99
2022-11-20T01:13:49.259Z,0.99
2022-11-20T01:16:19.408Z,1.00
2022-11-20T01:18:49.252Z,0.95
2022-11-20T01:21:18.926Z,1.05
2022-11-20T01:23:49.630Z,1.05
2022-11-20T01:26:19.475Z,0.96
2022-11-20T01:28:49.932Z,1.03
2022-11-20T01:31:20.067Z,1.08
2022-11-20T01:33:50.476Z,1.12
2022-11-20T01:36:19.610Z,1.15
2022-11-20T01:38:52.750Z,1.21
2022-11-20T01:41:21.013Z,1.28
2022-11-20T01:43:49.939Z,1.37
2022-11-20T01:46:19.644Z,1.41
2022-11-20T01:48:53.235Z,1.48
2022-11-20T01:51:26.860Z,1.56
2022-11-20T01:53:58.747Z,1.62
2022-11-20T01:56:28.119Z,1.69
2022-11-20T01:58:59.726Z,1.75
2022-11-20T02:01:27.592Z,1.87
2022-11-20T02:03:55.949Z,1.94
2022-11-20T02:06:27.070Z,2.06
2022-11-20T02:08:56.452Z,2.21
2022-11-20T02:11:24.191Z,2.40
2022-11-20T02:13:52.244Z,2.42
2022-11-20T02:16:24.410Z,2.50
2022-11-20T02:18:52.876Z,2.54
2022-11-20T02:21:29.733Z,2.54
2022-11-20T02:24:07.809Z,2.59
2022-11-20T02:26:50.313Z,2.63
2022-11-20T02:29:23.095Z,2.63
2022-11-20T02:31:51.483Z,2.63
2022-11-20T02:34:19.058Z,2.65
2022-11-20T02:36:48.039Z,2.61
2022-11-20T02:39:17.577Z,2.64
2022-11-20T02:41:45.883Z,2.63
2022-11-20T02:44:13.754Z,2.48
2022-11-20T02:46:42.196Z,2.28
2022-11-20T02:49:10.144Z,2.11
2022-11-20T02:51:37.974Z,2.02
2022-11-20T02:54:05.857Z,1.98
2022-11-20T02:56:34.925Z,1.97
2022-11-20T02:59:02.557Z,1.93
2022-11-20T03:01:30.444Z,1.90
2022-11-20T03:03:58.191Z,1.82
2022-11-20T03:06:25.807Z,1.82
2022-11-20T03:08:54.061Z,1.77
2022-11-20T03:11:21.915Z,1.81
2022-11-20T03:13:50.938Z,1.79
2022-11-20T03:16:21.128Z,1.77
2022-11-20T03:18:49.939Z,1.74
2022-11-20T03:21:17.528Z,1.70
2022-11-20T03:23:45.564Z,1.74
2022-11-20T03:26:16.047Z,1.71
2022-11-20T03:28:48.708Z,1.68
2022-11-20T03:31:19.955Z,1.66
2022-11-20T03:33:48.150Z,1.64
2022-11-20T03:36:17.826Z,1.58
2022-11-20T03:38:47.500Z,1.57
2022-11-20T03:41:16.663Z,1.58
2022-11-20T03:43:49.069Z,1.57
2022-11-20T03:46:18.167Z,1.53
2022-11-20T03:48:51.164Z,1.53
2022-11-20T03:51:21.597Z,1.51
2022-11-20T03:53:51.152Z,1.46
2022-11-20T03:56:21.406Z,1.47
2022-11-20T03:58:49.101Z,1.45
2022-11-20T04:01:20.037Z,1.42
2022-11-20T04:03:48.424Z,1.42
2022-11-20T04:06:20.420Z,1.40
2022-11-20T04:08:53.354Z,1.39
2022-11-20T04:11:23.691Z,1.39
2022-11-20T04:13:52.920Z,1.35
2022-11-20T04:16:22.797Z,1.36
2022-11-20T04:18:53.370Z,1.35
2022-11-20T04:21:21.178Z,1.34
2022-11-20T04:23:49.425Z,1.38
2022-11-20T04:26:17.647Z,1.32
2022-11-20T04:28:46.578Z,1.31
2022-11-20T04:31:17.075Z,1.34
2022-11-20T04:33:46.740Z,1.31
2022-11-20T04:36:16.503Z,1.30
2022-11-20T04:38:44.725Z,1.26
2022-11-20T04:41:18.026Z,1.29
2022-11-20T04:43:48.241Z,1.28
2022-11-20T04:46:16.237Z,1.26
2022-11-20T04:48:48.003Z,1.30
2022-11-20T04:51:16.068Z,1.30
2022-11-20T04:53:43.762Z,1.27
2022-11-20T04:56:13.095Z,1.33
2022-11-20T04:58:41.651Z,1.36
2022-11-20T05:01:12.884Z,1.41
2022-11-20T05:04:01.762Z,1.47
2022-11-20T05:06:30.700Z,1.50
2022-11-20T05:08:58.425Z,1.54
2022-11-20T05:11:26.500Z,1.59
2022-11-20T05:13:54.230Z,1.63
2022-11-20T05:16:23.871Z,1.72
2022-11-20T05:18:54.150Z,1.70
2022-11-20T05:21:23.975Z,1.79
2022-11-20T05:23:51.546Z,1.84
2022-11-20T05:26:21.508Z,1.87
2022-11-20T05:28:49.316Z,1.91
2022-11-20T05:31:26.287Z,1.93
2022-11-20T05:33:56.509Z,1.89
2022-11-20T05:36:26.109Z,2.00
2022-11-20T05:38:58.279Z,2.01
2022-11-20T05:41:29.562Z,1.97
2022-11-20T05:43:57.425Z,2.05
2022-11-20T05:46:28.768Z,2.10
2022-11-20T05:48:58.086Z,2.11
2022-11-20T05:51:27.885Z,2.20
2022-11-20T05:53:57.927Z,2.35
2022-11-20T05:56:25.795Z,2.46
2022-11-20T05:58:53.355Z,2.49
2022-11-20T06:01:23.267Z,2.62
2022-11-20T06:03:53.484Z,2.70
2022-11-20T06:06:21.898Z,2.88
2022-11-20T06:08:51.027Z,2.95
2022-11-20T06:11:18.957Z,3.02
2022-11-20T06:13:47.386Z,3.03
2022-11-20T06:16:20.227Z,3.12
2022-11-20T06:18:49.946Z,3.18
2022-11-20T06:21:19.853Z,3.23
2022-11-20T06:23:48.130Z,3.27
2022-11-20T06:26:19.008Z,3.27
2022-11-20T06:28:47.225Z,3.29
2022-11-20T06:31:16.494Z,3.34
2022-11-20T06:33:45.157Z,3.41
2022-11-20T06:36:15.151Z,3.45
2022-11-20T06:38:45.230Z,3.55
2022-11-20T06:41:18.926Z,3.62
2022-11-20T06:43:47.679Z,3.67
2022-11-20T06:46:17.282Z,3.78
2022-11-20T06:48:45.381Z,3.81
2022-11-20T06:51:13.353Z,3.81
2022-11-20T06:53:41.276Z,3.82
2022-11-20T06:56:11.517Z,3.84
2022-11-20T06:58:40.750Z,3.85
2022-11-20T07:01:11.539Z,3.85
2022-11-20T07:03:40.360Z,3.86
2022-11-20T07:06:08.821Z,3.90
2022-11-20T07:08:38.118Z,3.92
2022-11-20T07:11:08.068Z,3.92
2022-11-20T07:13:36.151Z,3.95
2022-11-20T07:16:08.102Z,3.97
2022-11-20T07:18:35.750Z,4.02
2022-11-20T07:21:07.872Z,4.02
2022-11-20T07:23:37.854Z,4.02
2022-11-20T07:26:06.050Z,4.02
2022-11-20T07:28:34.731Z,4.00
2022-11-20T07:31:02.848Z,4.04
2022-11-20T07:33:32.747Z,4.06
2022-11-20T07:36:00.983Z,4.09
2022-11-20T07:38:28.963Z,4.14
2022-11-20T07:40:56.838Z,4.16
2022-11-20T07:43:24.827Z,4.19
2022-11-20T07:45:52.587Z,4.24
2022-11-20T07:48:20.220Z,4.30
2022-11-20T07:50:49.546Z,4.34
2022-11-20T07:53:17.085Z,4.36
2022-11-20T07:55:44.711Z,4.39
2022-11-20T07:58:12.447Z,4.41
2022-11-20T08:00:40.057Z,4.44
2022-11-20T08:03:08.133Z,4.47
2022-11-20T08:05:36.284Z,4.51
2022-11-20T08:08:05.552Z,4.57
2022-11-20T08:10:33.122Z,4.61
2022-11-20T08:13:01.190Z,4.61
2022-11-20T08:15:28.838Z,4.63
2022-11-20T08:18:23.650Z,4.30
2022-11-20T08:20:51.164Z,4.11
2022-11-20T08:23:20.623Z,4.04
2022-11-20T08:25:51.132Z,4.07
2022-11-20T08:28:21.811Z,4.05
2022-11-20T08:30:50.571Z,4.08
2022-11-20T08:33:19.160Z,4.06
2022-11-20T08:35:46.957Z,4.06
2022-11-20T08:38:14.971Z,4.05
2022-11-20T08:40:44.491Z,4.05
2022-11-20T08:43:12.387Z,3.87
2022-11-20T08:45:40.295Z,3.71
2022-11-20T08:48:08.485Z,3.63
2022-11-20T08:50:36.090Z,3.58
2022-11-20T08:53:04.720Z,3.59
2022-11-20T08:55:32.709Z,3.60
2022-11-20T08:58:06.015Z,3.54
2022-11-20T09:00:34.702Z,3.50
2022-11-20T09:03:02.881Z,3.47
2022-11-20T09:05:30.711Z,3.41
2022-11-20T09:08:00.319Z,3.49
2022-11-20T09:10:28.675Z,3.51
2022-11-20T09:12:57.916Z,3.58
2022-11-20T09:15:27.343Z,3.60
2022-11-20T09:17:56.185Z,3.66
2022-11-20T09:20:24.119Z,3.67
2022-11-20T09:22:53.204Z,3.70
2022-11-20T09:25:20.994Z,3.72
2022-11-20T09:27:49.037Z,3.74
2022-11-20T09:30:17.174Z,3.76
2022-11-20T09:32:50.258Z,3.72
2022-11-20T09:35:18.471Z,3.70
2022-11-20T09:37:46.187Z,3.74
2022-11-20T09:40:21.860Z,3.78
2022-11-20T09:42:56.247Z,3.80
2022-11-20T09:45:35.025Z,3.81
2022-11-20T09:48:21.752Z,3.80
2022-11-20T09:50:54.724Z,3.82
2022-11-20T09:53:31.426Z,3.91
2022-11-20T09:56:01.983Z,3.92
2022-11-20T09:58:36.242Z,3.97
2022-11-20T10:01:11.410Z,4.01
2022-11-20T10:03:51.590Z,3.98
2022-11-20T10:06:22.991Z,4.02
2022-11-20T10:09:01.911Z,4.08
2022-11-20T10:11:40.358Z,4.14
2022-11-20T10:14:21.807Z,4.07
2022-11-20T10:17:03.188Z,4.20
2022-11-20T10:19:48.306Z,4.22
2022-11-20T10:22:27.375Z,4.24
2022-11-20T10:24:58.079Z,4.22
2022-11-20T10:27:44.469Z,4.26
2022-11-20T10:30:15.179Z,4.19
2022-11-20T10:32:47.485Z,4.32
2022-11-20T10:35:25.443Z,4.38
2022-11-20T10:37:59.613Z,4.42
2022-11-20T10:40:35.578Z,4.49
2022-11-20T10:43:13.475Z,4.56
2022-11-20T10:45:59.866Z,4.61
2022-11-20T10:48:29.064Z,4.65
2022-11-20T10:51:10.193Z,4.68
2022-11-20T10:53:49.476Z,4.71
2022-11-20T10:56:22.074Z,4.81
2022-11-20T10:59:09.331Z,4.89
2022-11-20T11:01:42.227Z,5.07
2022-11-20T11:04:29.546Z,5.16
2022-11-20T11:07:07.901Z,5.24
2022-11-20T11:09:43.496Z,5.25
2022-11-20T11:12:12.402Z,5.22
2022-11-20T11:14:48.140Z,5.27
2022-11-20T11:17:27.861Z,5.25
2022-11-20T11:20:03.614Z,5.28
2022-11-20T11:22:38.306Z,5.29
2022-11-20T11:25:09.167Z,5.35
2022-11-20T11:27:47.212Z,5.36
2022-11-20T11:30:16.999Z,5.37
2022-11-20T11:32:45.075Z,5.43
2022-11-20T11:35:33.988Z,5.45
2022-11-20T11:38:13.230Z,5.50
2022-11-20T11:40:41.708Z,5.52
2022-11-20T11:43:21.006Z,5.58
2022-11-20T11:45:54.715Z,5.60
2022-11-20T11:48:22.684Z,5.65
2022-11-20T11:50:51.341Z,5.68
2022-11-20T11:53:22.233Z,5.66
2022-11-20T11:55:56.644Z,5.69
2022-11-20T11:58:42.939Z,5.72
2022-11-20T12:01:25.771Z,5.78
2022-11-20T12:04:03.399Z,5.82
2022-11-20T12:06:35.305Z,5.81
2022-11-20T12:09:09.289Z,5.83
2022-11-20T12:11:44.774Z,5.83
2022-11-20T12:14:18.743Z,5.80
2022-11-20T12:16:47.638Z,5.76
2022-11-20T12:19:15.739Z,5.77
2022-11-20T12:22:00.269Z,5.75
2022-11-20T12:24:50.749Z,5.65
2022-11-20T12:27:48.645Z,5.64
2022-11-20T12:30:18.408Z,5.68
2022-11-20T12:33:05.775Z,5.66
2022-11-20T12:35:58.245Z,5.63
2022-11-20T12:38:53.886Z,5.56
2022-11-20T12:41:41.573Z,5.52
2022-11-20T12:44:25.583Z,5.45
2022-11-20T12:47:02.544Z,5.44
2022-11-20T12:49:38.492Z,5.38
2022-11-20T12:52:25.749Z,5.34
2022-11-20T12:55:11.920Z,5.28
2022-11-20T12:57:50.937Z,5.28
2022-11-20T13:00:20.826Z,5.26
2022-11-20T13:03:17.392Z,5.18
2022-11-20T13:05:54.647Z,5.16
2022-11-20T13:08:25.123Z,5.07
2022-11-20T13:11:01.135Z,4.95
2022-11-20T13:13:41.192Z,4.92
2022-11-20T13:16:17.045Z,4.89
2022-11-20T13:18:44.971Z,4.77
2022-11-20T13:21:21.472Z,4.72
2022-11-20T13:23:49.169Z,4.74
2022-11-20T13:26:20.181Z,4.70
2022-11-20T13:29:13.077Z,4.69
2022-11-20T13:31:44.505Z,4.68
2022-11-20T13:34:14.826Z,4.66
2022-11-20T13:36:51.447Z,4.58
2022-11-20T13:39:25.867Z,4.55
2022-11-20T13:41:58.058Z,4.53
2022-11-20T13:44:34.752Z,4.51
2022-11-20T13:47:02.541Z,4.49
2022-11-20T13:49:34.117Z,4.50
2022-11-20T13:52:08.874Z,4.41
2022-11-20T13:54:53.893Z,4.40
2022-11-20T13:57:54.347Z,4.38
2022-11-20T14:00:26.095Z,4.34
2022-11-20T14:03:08.567Z,4.34
2022-11-20T14:05:40.739Z,4.26
2022-11-20T14:08:27.649Z,4.22
2022-11-20T14:11:05.167Z,4.18
2022-11-20T14:13:33.188Z,4.13
2022-11-20T14:16:02.902Z,4.12
2022-11-20T14:18:30.575Z,4.05
2022-11-20T14:21:01.887Z,4.12
2022-11-20T14:23:30.778Z,4.14
2022-11-20T14:25:59.167Z,4.08
2022-11-20T14:28:28.967Z,4.06
2022-11-20T14:30:58.249Z,4.01
2022-11-20T14:33:28.587Z,3.93
2022-11-20T14:35:58.621Z,3.97
2022-11-20T14:38:28.848Z,3.93
2022-11-20T14:41:07.586Z,3.82
2022-11-20T14:43:37.503Z,3.92
2022-11-20T14:46:08.226Z,3.91
2022-11-20T14:48:41.866Z,3.91
2022-11-20T14:51:11.073Z,3.90
2022-11-20T14:53:39.314Z,3.86
2022-11-20T14:56:06.871Z,3.89
2022-11-20T14:58:36.687Z,3.90
2022-11-20T15:01:06.528Z,3.83
2022-11-20T15:03:37.429Z,3.84
2022-11-20T15:06:07.983Z,3.86
2022-11-20T15:08:35.857Z,3.77
2022-11-20T15:11:18.992Z,3.76
2022-11-20T15:13:46.802Z,3.75
2022-11-20T15:16:19.448Z,3.74
2022-11-20T15:18:48.725Z,3.74
2022-11-20T15:21:20.044Z,3.75
2022-11-20T15:23:48.432Z,3.75
2022-11-20T15:26:21.965Z,3.70
2022-11-20T15:28:50.092Z,3.68
2022-11-20T15:31:20.454Z,3.70
2022-11-20T15:33:48.689Z,3.74
2022-11-20T15:36:18.035Z,3.70
2022-11-20T15:38:45.594Z,3.67
2022-11-20T15:41:13.387Z,3.71
2022-11-20T15:43:40.948Z,3.67
2022-11-20T15:46:12.637Z,3.64
2022-11-20T15:48:46.365Z,3.67
2022-11-20T15:51:24.197Z,3.64
2022-11-20T15:53:52.018Z,3.63
2022-11-20T15:56:19.771Z,3.67
2022-11-20T15:58:50.171Z,3.63
2022-11-20T16:01:20.618Z,3.62
2022-11-20T16:03:51.340Z,3.62
2022-11-20T16:06:20.615Z,3.62
2022-11-20T16:08:48.229Z,3.65
2022-11-20T16:11:17.745Z,3.62
2022-11-20T16:13:45.875Z,3.60
2022-11-20T16:16:22.038Z,3.60
2022-11-20T16:18:49.924Z,3.62
2022-11-20T16:21:20.581Z,3.63
2022-11-20T16:23:48.270Z,3.65
2022-11-20T16:26:17.933Z,3.69
2022-11-20T16:28:45.617Z,3.71
2022-11-20T16:31:14.857Z,3.66
2022-11-20T16:33:43.307Z,3.71
2022-11-20T16:36:12.033Z,3.73
2022-11-20T16:38:42.907Z,3.72
2022-11-20T16:41:10.727Z,3.71
2022-11-20T16:43:45.662Z,3.72
2022-11-20T16:46:13.604Z,3.73
2022-11-20T16:48:41.517Z,3.70
2022-11-20T16:51:09.830Z,3.77
2022-11-20T16:53:40.036Z,3.73
2022-11-20T16:56:13.188Z,3.78
2022-11-20T16:58:42.272Z,3.79
2022-11-20T17:01:11.550Z,3.81
2022-11-20T17:03:39.462Z,3.85
2022-11-20T17:06:12.671Z,3.85
2022-11-20T17:08:40.236Z,3.87
2022-11-20T17:11:08.159Z,3.89
2022-11-20T17:13:39.984Z,3.91
2022-11-20T17:16:10.775Z,3.89
2022-11-20T17:18:38.943Z,3.91
2022-11-20T17:21:07.103Z,3.90
2022-11-20T17:23:36.698Z,3.91
2022-11-20T17:26:06.655Z,3.92
2022-11-20T17:28:38.702Z,3.85
2022-11-20T17:31:08.405Z,3.80
2022-11-20T17:33:42.620Z,3.79
2022-11-20T17:36:12.296Z,3.79
2022-11-20T17:38:39.923Z,3.79
2022-11-20T17:41:09.292Z,3.77
2022-11-20T17:43:39.603Z,3.73
2022-11-20T17:46:07.893Z,3.74
2022-11-20T17:48:35.980Z,3.60
2022-11-20T17:51:05.824Z,3.63
2022-11-20T17:53:35.217Z,3.66
2022-11-20T17:56:04.614Z,3.62
2022-11-20T17:58:32.654Z,3.67
2022-11-20T18:01:06.355Z,3.64
2022-11-20T18:03:34.164Z,3.56
2022-11-20T18:06:09.312Z,3.59
2022-11-20T18:08:37.815Z,3.61
2022-11-20T18:11:12.608Z,3.59
2022-11-20T18:13:45.014Z,3.57
2022-11-20T18:16:16.813Z,3.59
2022-11-20T18:18:44.687Z,3.60
2022-11-20T18:21:12.506Z,3.62
2022-11-20T18:23:40.057Z,3.61
2022-11-20T18:26:07.894Z,3.58
2022-11-20T18:28:37.492Z,3.60
2022-11-20T18:31:06.226Z,3.58
2022-11-20T18:33:36.269Z,3.51
2022-11-20T18:36:09.848Z,3.54
2022-11-20T18:38:40.176Z,3.46
2022-11-20T18:41:08.616Z,3.51
2022-11-20T18:43:37.302Z,3.50
2022-11-20T18:46:05.052Z,3.47
2022-11-20T18:48:32.682Z,3.46
2022-11-20T18:51:07.082Z,3.46
2022-11-20T18:53:35.487Z,3.44
2022-11-20T18:56:04.371Z,3.46
2022-11-20T18:58:32.715Z,3.45
2022-11-20T19:01:05.403Z,3.47
2022-11-20T19:03:33.165Z,3.46
2022-11-20T19:06:01.218Z,3.43
2022-11-20T19:08:30.298Z,3.49
2022-11-20T19:11:06.795Z,3.42
2022-11-20T19:13:34.655Z,3.46
2022-11-20T19:16:03.679Z,3.46
2022-11-20T19:18:31.655Z,3.49
2022-11-20T19:21:07.315Z,3.46
2022-11-20T19:23:36.937Z,3.41
2022-11-20T19:26:04.869Z,3.38
2022-11-20T19:28:33.604Z,3.32
2022-11-20T19:31:03.962Z,3.24
2022-11-20T19:33:32.247Z,3.29
2022-11-20T19:36:09.561Z,3.34
2022-11-20T19:38:41.518Z,3.36
2022-11-20T19:41:14.682Z,3.36
2022-11-20T19:43:42.383Z,3.39
2022-11-20T19:46:11.004Z,3.37
2022-11-20T19:48:41.067Z,3.38
2022-11-20T19:51:09.734Z,3.37
2022-11-20T19:53:39.402Z,3.40
2022-11-20T19:56:08.365Z,3.39
2022-11-20T19:58:36.764Z,3.39
2022-11-20T20:01:08.636Z,3.37
2022-11-20T20:03:37.687Z,3.34
2022-11-20T20:06:08.189Z,3.35
2022-11-20T20:08:36.864Z,3.30
2022-11-20T20:11:14.624Z,3.22
2022-11-20T20:13:43.310Z,3.21
2022-11-20T20:16:13.673Z,3.18
2022-11-20T20:18:42.007Z,3.20
2022-11-20T20:21:13.834Z,3.18
2022-11-20T20:23:42.507Z,3.19
2022-11-20T20:26:11.662Z,3.20
2022-11-20T20:28:40.890Z,3.25
2022-11-20T20:31:11.347Z,3.20
2022-11-20T20:33:41.014Z,3.30
2022-11-20T20:36:11.159Z,3.26
2022-11-20T20:38:39.728Z,3.28
2022-11-20T20:41:07.556Z,3.32
2022-11-20T20:43:36.377Z,3.32
2022-11-20T20:46:07.933Z,3.33
2022-11-20T20:48:37.305Z,3.33
2022-11-20T20:51:04.865Z,3.34
2022-11-20T20:53:34.784Z,3.37
2022-11-20T20:56:03.013Z,3.38
2022-11-20T20:58:31.027Z,3.39
2022-11-20T21:01:02.162Z,3.39
2022-11-20T21:03:33.178Z,3.37
2022-11-20T21:06:02.179Z,3.40
2022-11-20T21:08:30.922Z,3.36
2022-11-20T21:11:02.542Z,3.34
2022-11-20T21:13:30.966Z,3.31
2022-11-20T21:16:03.679Z,3.37
2022-11-20T21:18:33.425Z,3.36
2022-11-20T21:21:05.326Z,3.34
2022-11-20T21:23:34.885Z,3.30
2022-11-20T21:26:03.680Z,3.25
2022-11-20T21:28:36.811Z,3.22
2022-11-20T21:31:06.276Z,3.22
2022-11-20T21:33:41.132Z,3.23
2022-11-20T21:36:10.170Z,3.18
2022-11-20T21:38:37.872Z,3.18
2022-11-20T21:41:07.878Z,3.16
2022-11-20T21:43:36.623Z,3.15
2022-11-20T21:46:06.506Z,3.08
2022-11-20T21:48:37.703Z,3.09
2022-11-20T21:51:08.349Z,3.11
2022-11-20T21:53:38.919Z,3.13
2022-11-20T21:56:07.725Z,3.13
2022-11-20T21:58:36.783Z,3.17
2022-11-20T22:01:08.534Z,3.17
2022-11-20T22:03:38.504Z,3.15
2022-11-20T22:06:09.631Z,3.18
2022-11-20T22:08:39.937Z,3.21
2022-11-20T22:11:09.842Z,3.27
2022-11-20T22:13:37.839Z,3.23
2022-11-20T22:16:05.900Z,3.20
2022-11-20T22:18:34.170Z,3.19
2022-11-20T22:21:05.466Z,3.24
2022-11-20T22:23:37.677Z,3.22
2022-11-20T22:26:08.416Z,3.25
2022-11-20T22:28:37.827Z,3.25
2022-11-20T22:31:07.354Z,3.21
2022-11-20T22:33:37.921Z,3.18
2022-11-20T22:36:07.183Z,3.17
2022-11-20T22:38:39.462Z,3.15
2022-11-20T22:41:09.229Z,3.14
2022-11-20T22:43:37.794Z,3.14
2022-11-20T22:46:07.947Z,3.14
2022-11-20T22:48:37.169Z,3.15
2022-11-20T22:51:07.111Z,3.23
2022-11-20T22:53:37.614Z,3.22
2022-11-20T22:56:06.261Z,3.25
2022-11-20T22:58:36.147Z,3.31
2022-11-20T23:01:08.862Z,3.31
2022-11-20T23:03:37.371Z,3.32
2022-11-20T23:06:05.973Z,3.35
2022-11-20T23:08:34.099Z,3.39
2022-11-20T23:11:08.663Z,3.40
2022-11-20T23:13:37.206Z,3.41
2022-11-20T23:16:06.963Z,3.44
2022-11-20T23:18:35.419Z,3.44
2022-11-20T23:21:08.377Z,3.38
2022-11-20T23:23:36.086Z,3.45
2022-11-20T23:26:07.790Z,3.42
2022-11-20T23:28:36.159Z,3.43
2022-11-20T23:31:04.165Z,3.41
2022-11-20T23:33:35.115Z,3.36
2022-11-20T23:36:05.832Z,3.40
2022-11-20T23:38:34.333Z,3.41
2022-11-20T23:41:04.402Z,3.45
2022-11-20T23:43:34.151Z,3.45
2022-11-20T23:46:03.218Z,3.46
2022-11-20T23:48:33.300Z,3.45
2022-11-20T23:51:01.377Z,3.41
2022-11-20T23:53:29.782Z,3.39
2022-11-20T23:55:59.348Z,3.39
2022-11-20T23:58:34.038Z,3.37
